createdAt,value
2022-07-29T00:02:04.514Z,43.93
2022-07-29T00:04:31.052Z,42.95
2022-07-29T00:06:57.560Z,43.38
2022-07-29T00:09:24.070Z,42.70
2022-07-29T00:11:50.537Z,41.76
2022-07-29T00:14:17.408Z,42.48
2022-07-29T00:16:44.130Z,42.85
2022-07-29T00:19:10.724Z,43.80
2022-07-29T00:21:37.458Z,44.02
2022-07-29T00:24:04.125Z,43.54
2022-07-29T00:26:32.682Z,45.72
2022-07-29T00:29:32.364Z,45.24
2022-07-29T00:31:50.988Z,46.81
2022-07-29T00:34:36.019Z,46.40
2022-07-29T00:37:02.777Z,46.82
2022-07-29T00:39:29.243Z,46.21
2022-07-29T00:41:55.801Z,46.29
2022-07-29T00:44:22.321Z,45.90
2022-07-29T00:46:48.888Z,46.17
2022-07-29T00:49:15.506Z,46.48
2022-07-29T00:51:42.126Z,46.40
2022-07-29T00:54:08.809Z,47.09
2022-07-29T00:56:35.344Z,46.35
2022-07-29T00:59:01.885Z,45.32
2022-07-29T01:01:29.476Z,45.04
2022-07-29T01:03:56.108Z,46.16
2022-07-29T01:06:23.030Z,46.80
2022-07-29T01:08:50.375Z,45.96
2022-07-29T01:11:18.013Z,45.00
2022-07-29T01:13:46.855Z,45.02
2022-07-29T01:16:26.206Z,45.23
2022-07-29T01:18:57.755Z,43.94
2022-07-29T01:21:55.118Z,43.05
2022-07-29T01:24:54.585Z,42.36
2022-07-29T01:27:33.180Z,42.06
2022-07-29T01:30:02.075Z,42.38
2022-07-29T01:32:36.213Z,42.73
2022-07-29T01:35:11.420Z,44.55
2022-07-29T01:37:46.149Z,45.50
2022-07-29T01:40:20.827Z,44.63
2022-07-29T01:42:52.779Z,43.79
2022-07-29T01:45:42.784Z,45.47
2022-07-29T01:48:21.197Z,46.11
2022-07-29T01:50:51.397Z,44.20
2022-07-29T01:53:30.370Z,42.37
2022-07-29T01:56:05.575Z,42.59
2022-07-29T01:58:34.117Z,41.70
2022-07-29T02:01:02.652Z,42.90
2022-07-29T02:03:31.130Z,42.92
2022-07-29T02:05:59.205Z,43.83
2022-07-29T02:08:27.032Z,42.38
2022-07-29T02:10:54.427Z,41.17
2022-07-29T02:13:24.003Z,41.81
2022-07-29T02:15:52.999Z,41.35
2022-07-29T02:18:21.663Z,41.51
2022-07-29T02:20:51.414Z,40.87
2022-07-29T02:23:24.085Z,43.73
2022-07-29T02:25:54.214Z,42.70
2022-07-29T02:28:22.806Z,43.87
2022-07-29T02:30:52.341Z,43.89
2022-07-29T02:33:19.855Z,46.17
2022-07-29T02:35:48.482Z,46.60
2022-07-29T02:38:35.784Z,46.27
2022-07-29T02:41:06.701Z,45.11
2022-07-29T02:43:35.034Z,46.79
2022-07-29T02:46:03.525Z,46.93
2022-07-29T02:48:37.356Z,46.86
2022-07-29T02:51:41.427Z,47.15
2022-07-29T02:54:09.911Z,46.59
2022-07-29T02:56:38.984Z,46.86
2022-07-29T02:59:11.295Z,47.27
2022-07-29T03:01:41.125Z,47.63
2022-07-29T03:04:09.987Z,46.08
2022-07-29T03:06:39.087Z,46.00
2022-07-29T03:09:12.908Z,46.68
2022-07-29T03:11:49.116Z,43.44
2022-07-29T03:14:18.712Z,42.85
2022-07-29T03:16:46.681Z,44.90
2022-07-29T03:19:14.123Z,46.06
2022-07-29T03:21:40.583Z,45.53
2022-07-29T03:24:10.589Z,45.78
2022-07-29T03:26:37.937Z,43.76
2022-07-29T03:29:04.474Z,46.06
2022-07-29T03:31:31.780Z,46.68
2022-07-29T03:34:00.089Z,47.08
2022-07-29T03:36:26.544Z,45.99
2022-07-29T03:38:53.284Z,47.89
2022-07-29T03:41:22.755Z,48.42
2022-07-29T03:43:52.617Z,47.92
2022-07-29T03:46:23.525Z,47.31
2022-07-29T03:48:53.666Z,45.54
2022-07-29T03:51:20.359Z,49.47
2022-07-29T03:54:06.194Z,48.44
2022-07-29T03:56:40.190Z,48.10
2022-07-29T03:59:08.473Z,46.74
2022-07-29T04:01:36.275Z,49.61
2022-07-29T04:04:04.136Z,47.76
2022-07-29T04:06:39.273Z,47.63
2022-07-29T04:09:05.774Z,49.67
2022-07-29T04:12:01.577Z,48.87
2022-07-29T04:14:24.258Z,50.39
2022-07-29T04:16:54.220Z,49.06
2022-07-29T04:19:20.689Z,50.08
2022-07-29T04:21:47.232Z,49.67
2022-07-29T04:24:14.078Z,48.83
2022-07-29T04:26:40.849Z,49.11
2022-07-29T04:29:07.410Z,48.75
2022-07-29T04:31:33.904Z,49.97
2022-07-29T04:34:00.378Z,48.20
2022-07-29T04:36:29.457Z,50.27
2022-07-29T04:38:56.561Z,47.64
2022-07-29T04:41:23.155Z,49.47
2022-07-29T04:43:50.155Z,49.81
2022-07-29T04:46:16.878Z,47.92
2022-07-29T04:48:43.445Z,46.85
2022-07-29T04:51:09.961Z,48.84
2022-07-29T04:53:36.418Z,48.13
2022-07-29T04:56:03.546Z,49.59
2022-07-29T04:58:30.004Z,50.46
2022-07-29T05:00:56.620Z,50.39
2022-07-29T05:03:23.067Z,50.72
2022-07-29T05:05:49.543Z,47.68
2022-07-29T05:08:18.799Z,49.59
2022-07-29T05:10:45.711Z,50.48
2022-07-29T05:13:12.233Z,50.52
2022-07-29T05:15:38.782Z,47.38
2022-07-29T05:18:05.656Z,48.41
2022-07-29T05:20:33.831Z,49.48
2022-07-29T05:23:01.612Z,49.65
2022-07-29T05:25:42.971Z,49.84
2022-07-29T05:28:12.094Z,50.04
2022-07-29T05:30:38.717Z,48.27
2022-07-29T05:33:05.354Z,51.02
2022-07-29T05:35:31.900Z,51.23
2022-07-29T05:37:58.343Z,48.97
2022-07-29T05:40:24.997Z,49.42
2022-07-29T05:42:51.468Z,48.62
2022-07-29T05:45:18.046Z,48.13
2022-07-29T05:47:44.617Z,48.44
2022-07-29T05:50:11.303Z,49.45
2022-07-29T05:52:37.753Z,48.23
2022-07-29T05:55:06.413Z,46.17
2022-07-29T05:57:33.199Z,46.28
2022-07-29T05:59:59.693Z,46.58
2022-07-29T06:02:26.158Z,45.62
2022-07-29T06:04:53.764Z,45.47
2022-07-29T06:07:22.345Z,46.33
2022-07-29T06:09:48.880Z,45.75
2022-07-29T06:12:15.387Z,47.41
2022-07-29T06:14:41.868Z,45.98
2022-07-29T06:17:08.378Z,45.95
2022-07-29T06:19:36.322Z,46.13
2022-07-29T06:22:03.186Z,49.36
2022-07-29T06:24:29.739Z,48.59
2022-07-29T06:26:56.871Z,47.44
2022-07-29T06:29:23.371Z,45.67
2022-07-29T06:31:49.897Z,45.12
2022-07-29T06:34:17.363Z,48.05
2022-07-29T06:36:44.333Z,47.84
2022-07-29T06:39:12.460Z,48.14
2022-07-29T06:41:39.029Z,46.83
2022-07-29T06:44:05.689Z,47.52
2022-07-29T06:46:33.170Z,46.28
2022-07-29T06:49:01.543Z,47.90
2022-07-29T06:51:28.480Z,47.42
2022-07-29T06:53:59.544Z,48.92
2022-07-29T06:56:39.163Z,46.20
2022-07-29T06:59:08.138Z,46.61
2022-07-29T07:01:34.979Z,48.50
2022-07-29T07:04:01.594Z,47.12
2022-07-29T07:06:28.449Z,45.95
2022-07-29T07:08:55.005Z,47.70
2022-07-29T07:11:21.735Z,44.37
2022-07-29T07:13:48.244Z,42.88
2022-07-29T07:16:14.869Z,41.17
2022-07-29T07:18:41.664Z,40.93
2022-07-29T07:21:08.136Z,43.98
2022-07-29T07:23:34.640Z,40.91
2022-07-29T07:26:01.164Z,40.10
2022-07-29T07:28:27.649Z,41.39
2022-07-29T07:30:54.127Z,43.77
2022-07-29T07:33:20.726Z,42.18
2022-07-29T07:35:47.809Z,43.25
2022-07-29T07:38:14.307Z,41.52
2022-07-29T07:40:41.308Z,41.47
2022-07-29T07:43:07.753Z,42.04
2022-07-29T07:45:34.597Z,39.97
2022-07-29T07:48:01.112Z,39.77
2022-07-29T07:50:27.613Z,41.56
2022-07-29T07:52:58.478Z,38.88
2022-07-29T07:55:26.055Z,42.23
2022-07-29T07:57:52.617Z,41.78
2022-07-29T08:00:19.126Z,39.34
2022-07-29T08:02:49.616Z,40.14
2022-07-29T08:05:19.093Z,40.01
2022-07-29T08:07:47.474Z,40.66
2022-07-29T08:10:16.078Z,42.75
2022-07-29T08:12:44.461Z,43.19
2022-07-29T08:15:10.975Z,41.90
2022-07-29T08:17:37.561Z,41.20
2022-07-29T08:20:04.501Z,40.03
2022-07-29T08:22:30.975Z,42.67
2022-07-29T08:24:57.477Z,39.71
2022-07-29T08:27:42.955Z,40.22
2022-07-29T08:30:11.162Z,38.65
2022-07-29T08:32:53.094Z,38.47
2022-07-29T08:35:21.850Z,41.93
2022-07-29T08:37:48.761Z,40.26
2022-07-29T08:40:15.414Z,40.95
2022-07-29T08:42:41.997Z,39.73
2022-07-29T08:45:09.339Z,37.68
2022-07-29T08:47:40.335Z,37.62
2022-07-29T08:50:09.600Z,37.21
2022-07-29T08:52:41.140Z,35.86
2022-07-29T08:55:09.679Z,35.67
2022-07-29T08:57:37.142Z,35.46
2022-07-29T09:00:11.598Z,38.42
2022-07-29T09:02:45.245Z,36.51
2022-07-29T09:05:13.587Z,34.61
2022-07-29T09:07:40.551Z,34.76
2022-07-29T09:10:07.711Z,38.20
2022-07-29T09:12:38.005Z,37.64
2022-07-29T09:15:05.155Z,35.93
2022-07-29T09:17:49.186Z,35.02
2022-07-29T09:20:23.956Z,35.52
2022-07-29T09:22:53.570Z,36.09
2022-07-29T09:25:36.859Z,37.78
2022-07-29T09:28:11.473Z,37.35
2022-07-29T09:30:52.355Z,36.28
2022-07-29T09:33:19.747Z,36.07
2022-07-29T09:35:56.512Z,36.32
2022-07-29T09:38:24.509Z,36.20
2022-07-29T09:41:01.135Z,36.06
2022-07-29T09:43:32.973Z,37.05
2022-07-29T09:46:14.881Z,37.19
2022-07-29T09:48:41.590Z,37.76
2022-07-29T09:51:25.596Z,37.86
2022-07-29T09:53:55.252Z,37.75
2022-07-29T09:56:39.351Z,36.50
2022-07-29T09:59:10.148Z,38.25
2022-07-29T10:01:36.980Z,35.50
2022-07-29T10:04:03.878Z,34.49
2022-07-29T10:06:30.330Z,34.15
2022-07-29T10:09:10.427Z,35.47
2022-07-29T10:11:49.546Z,34.20
2022-07-29T10:14:16.924Z,34.90
2022-07-29T10:16:43.841Z,35.93
2022-07-29T10:19:10.536Z,34.90
2022-07-29T10:21:38.742Z,34.35
2022-07-29T10:24:07.169Z,36.51
2022-07-29T10:26:41.880Z,35.50
2022-07-29T10:29:08.375Z,35.34
2022-07-29T10:32:09.373Z,35.63
2022-07-29T10:34:50.977Z,34.96
2022-07-29T10:37:47.447Z,33.79
2022-07-29T10:43:46.024Z,33.93
2022-07-29T10:46:14.926Z,35.05
2022-07-29T10:49:08.144Z,33.06
2022-07-29T10:51:59.952Z,34.25
2022-07-29T10:54:36.542Z,33.48
2022-07-29T10:57:25.620Z,35.17
2022-07-29T11:00:12.247Z,34.09
2022-07-29T11:02:45.335Z,32.83
2022-07-29T11:05:19.620Z,32.75
2022-07-29T11:08:20.409Z,34.62
2022-07-29T11:10:49.437Z,34.11
2022-07-29T11:13:47.310Z,32.09
2022-07-29T11:16:16.451Z,30.37
2022-07-29T11:19:14.337Z,32.73
2022-07-29T11:21:53.879Z,33.49
2022-07-29T11:24:33.207Z,34.15
2022-07-29T11:27:10.810Z,34.07
2022-07-29T11:29:43.050Z,32.71
2022-07-29T11:32:15.709Z,31.16
2022-07-29T11:34:45.054Z,29.08
2022-07-29T11:37:12.478Z,29.17
2022-07-29T11:39:39.391Z,30.66
2022-07-29T11:42:18.894Z,33.18
2022-07-29T11:45:09.251Z,31.25
2022-07-29T11:48:02.133Z,30.40
2022-07-29T11:50:36.394Z,30.80
2022-07-29T11:53:10.704Z,32.76
2022-07-29T11:55:50.853Z,31.62
2022-07-29T11:58:26.563Z,29.82
2022-07-29T12:00:55.612Z,29.65
2022-07-29T12:03:32.892Z,28.45
2022-07-29T12:06:02.501Z,26.54
2022-07-29T12:08:29.071Z,26.13
2022-07-29T12:10:55.647Z,26.04
2022-07-29T12:13:22.797Z,26.54
2022-07-29T12:16:04.110Z,26.15
2022-07-29T12:18:30.662Z,25.91
2022-07-29T12:21:03.450Z,26.58
2022-07-29T12:23:35.125Z,25.43
2022-07-29T12:26:07.411Z,25.36
2022-07-29T12:28:40.162Z,25.55
2022-07-29T12:31:13.796Z,25.02
2022-07-29T12:33:40.620Z,26.52
2022-07-29T12:36:10.349Z,25.72
2022-07-29T12:38:41.327Z,25.40
2022-07-29T12:41:08.150Z,25.08
2022-07-29T12:43:34.730Z,25.25
2022-07-29T12:46:15.967Z,25.80
2022-07-29T12:48:44.698Z,25.49
2022-07-29T12:51:15.119Z,25.14
2022-07-29T12:53:41.817Z,25.85
2022-07-29T12:56:41.255Z,25.38
2022-07-29T12:59:20.511Z,25.64
2022-07-29T13:01:50.106Z,25.62
2022-07-29T13:04:31.525Z,25.91
2022-07-29T13:07:05.148Z,25.78
2022-07-29T13:09:39.423Z,25.45
2022-07-29T13:12:11.472Z,25.82
2022-07-29T13:14:40.546Z,25.28
2022-07-29T13:17:07.060Z,26.02
2022-07-29T13:19:34.912Z,25.50
2022-07-29T13:22:01.595Z,25.29
2022-07-29T13:24:28.109Z,26.12
2022-07-29T13:26:56.662Z,26.50
2022-07-29T13:29:23.102Z,25.56
2022-07-29T13:31:49.911Z,25.11
2022-07-29T13:34:16.502Z,25.50
2022-07-29T13:36:42.977Z,25.70
2022-07-29T13:39:09.454Z,25.02
2022-07-29T13:41:35.943Z,25.75
2022-07-29T13:44:03.556Z,25.08
2022-07-29T13:46:30.134Z,24.88
2022-07-29T13:48:56.654Z,24.94
2022-07-29T13:51:23.904Z,24.79
2022-07-29T13:53:50.363Z,24.82
2022-07-29T13:56:16.874Z,24.41
2022-07-29T13:58:43.358Z,24.59
2022-07-29T14:01:09.954Z,25.04
2022-07-29T14:03:39.177Z,24.97
2022-07-29T14:06:06.711Z,25.21
2022-07-29T14:08:33.319Z,25.46
2022-07-29T14:10:59.804Z,25.52
2022-07-29T14:13:26.538Z,25.54
2022-07-29T14:15:53.419Z,24.56
2022-07-29T14:18:20.012Z,25.08
2022-07-29T14:20:46.570Z,25.16
2022-07-29T14:23:13.128Z,24.75
2022-07-29T14:25:45.448Z,24.55
2022-07-29T14:28:12.658Z,24.71
2022-07-29T14:30:41.291Z,24.40
2022-07-29T14:33:10.397Z,25.26
2022-07-29T14:35:36.844Z,24.95
2022-07-29T14:38:03.628Z,24.67
2022-07-29T14:40:30.181Z,25.68
2022-07-29T14:42:56.683Z,26.51
2022-07-29T14:45:23.752Z,27.14
2022-07-29T14:47:51.635Z,27.17
2022-07-29T14:50:27.581Z,26.45
2022-07-29T14:52:58.277Z,26.26
2022-07-29T14:55:24.760Z,27.22
2022-07-29T14:57:51.260Z,25.56
2022-07-29T15:00:18.549Z,25.69
2022-07-29T15:03:01.452Z,26.27
2022-07-29T15:05:29.303Z,26.30
2022-07-29T15:07:55.826Z,27.86
2022-07-29T15:10:22.551Z,26.05
2022-07-29T15:12:51.350Z,26.46
2022-07-29T15:15:17.920Z,27.33
2022-07-29T15:17:44.472Z,25.32
2022-07-29T15:20:12.647Z,25.93
2022-07-29T15:22:39.402Z,27.23
2022-07-29T15:25:06.811Z,27.18
2022-07-29T15:27:33.474Z,27.98
2022-07-29T15:30:00.120Z,26.98
2022-07-29T15:32:26.864Z,27.84
2022-07-29T15:34:53.349Z,26.45
2022-07-29T15:37:19.825Z,27.89
2022-07-29T15:39:46.298Z,27.72
2022-07-29T15:42:12.771Z,27.93
2022-07-29T15:44:39.244Z,27.72
2022-07-29T15:47:07.278Z,27.33
2022-07-29T15:49:47.339Z,27.93
2022-07-29T15:52:25.886Z,27.12
2022-07-29T15:54:54.730Z,27.02
2022-07-29T15:57:21.282Z,26.73
2022-07-29T15:59:47.843Z,27.32
2022-07-29T16:02:14.396Z,27.22
2022-07-29T16:04:41.097Z,27.56
2022-07-29T16:07:07.650Z,27.37
2022-07-29T16:09:34.288Z,26.69
2022-07-29T16:12:00.797Z,25.73
2022-07-29T16:14:28.505Z,27.84
2022-07-29T16:16:55.812Z,26.59
2022-07-29T16:19:22.789Z,28.23
2022-07-29T16:21:49.319Z,26.94
2022-07-29T16:24:15.858Z,26.99
2022-07-29T16:26:42.366Z,27.81
2022-07-29T16:29:08.814Z,26.63
2022-07-29T16:31:35.419Z,26.56
2022-07-29T16:34:02.519Z,26.24
2022-07-29T16:36:29.019Z,27.37
2022-07-29T16:38:55.491Z,27.08
2022-07-29T16:41:21.996Z,27.82
2022-07-29T16:43:48.534Z,28.19
2022-07-29T16:46:18.988Z,27.65
2022-07-29T16:48:45.999Z,27.32
2022-07-29T16:51:14.272Z,27.42
2022-07-29T16:53:41.325Z,27.84
2022-07-29T16:56:08.496Z,28.06
2022-07-29T16:58:43.555Z,27.40
2022-07-29T17:01:10.914Z,27.52
2022-07-29T17:04:00.082Z,28.55
2022-07-29T17:06:28.574Z,27.66
2022-07-29T17:08:56.035Z,27.34
2022-07-29T17:11:22.498Z,27.84
2022-07-29T17:14:10.119Z,28.97
2022-07-29T17:16:36.803Z,27.98
2022-07-29T17:19:03.509Z,27.71
2022-07-29T17:21:30.022Z,28.14
2022-07-29T17:23:56.548Z,29.16
2022-07-29T17:26:23.077Z,27.93
2022-07-29T17:28:49.600Z,28.29
2022-07-29T17:31:16.302Z,28.16
2022-07-29T17:33:42.829Z,28.85
2022-07-29T17:36:24.907Z,28.64
2022-07-29T17:38:56.319Z,29.46
2022-07-29T17:41:23.682Z,28.56
2022-07-29T17:43:50.942Z,29.08
2022-07-29T17:46:18.176Z,28.55
2022-07-29T17:48:45.241Z,29.00
2022-07-29T17:51:11.831Z,28.59
2022-07-29T17:53:38.498Z,29.07
2022-07-29T17:56:05.641Z,28.74
2022-07-29T17:58:32.986Z,28.79
2022-07-29T18:00:59.675Z,29.01
2022-07-29T18:03:26.881Z,28.53
2022-07-29T18:05:53.692Z,29.28
2022-07-29T18:08:20.289Z,29.90
2022-07-29T18:10:46.809Z,28.99
2022-07-29T18:13:13.541Z,29.17
2022-07-29T18:15:40.957Z,28.82
2022-07-29T18:18:07.545Z,30.34
2022-07-29T18:20:34.318Z,28.69
2022-07-29T18:23:01.394Z,28.28
2022-07-29T18:25:28.864Z,29.11
2022-07-29T18:28:00.014Z,29.25
2022-07-29T18:30:27.550Z,29.08
2022-07-29T18:33:19.293Z,29.39
2022-07-29T18:35:40.755Z,29.59
2022-07-29T18:38:07.191Z,29.63
2022-07-29T18:40:33.778Z,30.22
2022-07-29T18:43:00.245Z,29.69
2022-07-29T18:45:28.702Z,30.98
2022-07-29T18:47:56.083Z,30.88
2022-07-29T18:50:28.806Z,30.21
2022-07-29T18:52:58.278Z,30.27
2022-07-29T18:55:25.696Z,30.29
2022-07-29T18:57:56.384Z,31.17
2022-07-29T19:00:24.263Z,30.19
2022-07-29T19:02:51.108Z,30.58
2022-07-29T19:05:18.225Z,31.10
2022-07-29T19:07:44.683Z,30.99
2022-07-29T19:10:11.729Z,30.75
2022-07-29T19:12:38.283Z,31.46
2022-07-29T19:15:04.971Z,30.75
2022-07-29T19:17:31.499Z,30.70
2022-07-29T19:19:58.131Z,31.27
2022-07-29T19:22:24.712Z,30.37
2022-07-29T19:24:51.297Z,30.26
2022-07-29T19:27:17.832Z,31.93
2022-07-29T19:29:44.492Z,31.77
2022-07-29T19:32:11.116Z,31.92
2022-07-29T19:34:38.258Z,31.57
2022-07-29T19:37:05.195Z,31.18
2022-07-29T19:39:35.211Z,31.89
2022-07-29T19:42:03.371Z,30.80
2022-07-29T19:44:30.264Z,31.94
2022-07-29T19:46:57.098Z,31.36
2022-07-29T19:49:23.967Z,32.26
2022-07-29T19:51:50.499Z,32.13
2022-07-29T19:54:20.045Z,31.34
2022-07-29T19:56:46.543Z,32.01
2022-07-29T19:59:13.016Z,32.55
2022-07-29T20:01:39.559Z,31.35
2022-07-29T20:04:06.184Z,32.70
2022-07-29T20:06:32.790Z,32.06
2022-07-29T20:08:59.286Z,32.52
2022-07-29T20:11:26.528Z,31.23
2022-07-29T20:13:53.027Z,31.80
2022-07-29T20:16:19.686Z,31.62
2022-07-29T20:18:46.175Z,32.02
2022-07-29T20:21:12.677Z,32.59
2022-07-29T20:23:39.214Z,31.93
2022-07-29T20:26:09.284Z,31.32
2022-07-29T20:28:37.080Z,31.36
2022-07-29T20:31:03.718Z,31.96
2022-07-29T20:33:30.304Z,33.26
2022-07-29T20:35:56.879Z,32.68
2022-07-29T20:38:23.331Z,32.69
2022-07-29T20:40:50.722Z,33.46
2022-07-29T20:43:17.293Z,33.56
2022-07-29T20:45:45.244Z,34.34
2022-07-29T20:48:13.421Z,33.31
2022-07-29T20:50:39.872Z,34.11
2022-07-29T20:53:06.428Z,33.71
2022-07-29T20:55:32.963Z,33.23
2022-07-29T20:57:59.468Z,33.76
2022-07-29T21:00:26.000Z,33.91
2022-07-29T21:02:52.509Z,34.66
2022-07-29T21:05:19.109Z,34.15
2022-07-29T21:07:45.594Z,34.86
2022-07-29T21:10:14.053Z,35.18
2022-07-29T21:12:41.867Z,35.17
2022-07-29T21:15:08.817Z,35.78
2022-07-29T21:17:36.088Z,35.38
2022-07-29T21:20:05.216Z,36.19
2022-07-29T21:22:31.648Z,35.71
2022-07-29T21:24:59.325Z,34.74
2022-07-29T21:27:44.207Z,34.95
2022-07-29T21:30:13.879Z,35.71
2022-07-29T21:32:40.414Z,35.86
2022-07-29T21:35:15.195Z,36.38
2022-07-29T21:37:49.007Z,36.29
2022-07-29T21:40:15.572Z,34.79
2022-07-29T21:42:42.162Z,33.28
2022-07-29T21:45:13.429Z,34.94
2022-07-29T21:47:39.908Z,35.96
2022-07-29T21:50:06.823Z,34.86
2022-07-29T21:52:33.338Z,34.31
2022-07-29T21:54:59.933Z,33.96
2022-07-29T21:57:26.513Z,33.73
2022-07-29T21:59:53.049Z,33.50
2022-07-29T22:02:19.504Z,34.05
2022-07-29T22:04:46.094Z,33.93
2022-07-29T22:07:12.678Z,34.00
2022-07-29T22:09:39.166Z,33.68
2022-07-29T22:12:06.096Z,34.00
2022-07-29T22:14:32.628Z,34.29
2022-07-29T22:16:59.533Z,35.67
2022-07-29T22:19:27.528Z,35.38
2022-07-29T22:21:54.226Z,37.93
2022-07-29T22:24:20.674Z,38.04
2022-07-29T22:26:47.319Z,37.30
2022-07-29T22:29:16.606Z,38.09
2022-07-29T22:31:43.963Z,38.56
2022-07-29T22:34:13.248Z,39.06
2022-07-29T22:36:40.996Z,38.28
2022-07-29T22:39:07.547Z,37.64
2022-07-29T22:41:34.113Z,40.05
2022-07-29T22:44:00.754Z,39.76
2022-07-29T22:46:27.288Z,40.05
2022-07-29T22:48:53.900Z,39.20
2022-07-29T22:51:20.493Z,39.97
2022-07-29T22:53:47.084Z,41.30
2022-07-29T22:56:13.709Z,39.68
2022-07-29T22:58:40.222Z,40.12
2022-07-29T23:01:06.746Z,43.00
2022-07-29T23:03:33.386Z,41.22
2022-07-29T23:06:00.137Z,41.11
2022-07-29T23:08:26.644Z,42.32
2022-07-29T23:10:53.151Z,42.23
2022-07-29T23:13:19.624Z,44.67
2022-07-29T23:15:46.217Z,43.53
2022-07-29T23:18:12.988Z,42.99
2022-07-29T23:20:39.499Z,44.59
2022-07-29T23:23:06.012Z,42.75
2022-07-29T23:25:32.625Z,43.90
2022-07-29T23:27:59.195Z,44.96
2022-07-29T23:30:26.331Z,44.64
2022-07-29T23:32:53.599Z,43.84
2022-07-29T23:35:20.123Z,46.23
2022-07-29T23:37:46.762Z,44.22
2022-07-29T23:40:14.861Z,45.67
2022-07-29T23:42:42.414Z,45.91
2022-07-29T23:45:10.335Z,46.34
2022-07-29T23:47:36.800Z,44.90
2022-07-29T23:50:04.550Z,44.76
2022-07-29T23:52:31.072Z,44.98
2022-07-29T23:55:37.132Z,44.92
2022-07-29T23:57:44.162Z,44.37
